createdAt,value
2023-02-28T00:04:58.914Z,26.18
2023-02-28T00:09:58.227Z,29.02
2023-02-28T00:14:57.527Z,28.77
2023-02-28T00:19:57.838Z,28.24
2023-02-28T00:24:57.159Z,27.96
2023-02-28T00:29:56.480Z,27.49
2023-02-28T00:34:54.821Z,27.04
2023-02-28T00:39:53.947Z,26.57
2023-02-28T00:44:54.280Z,26.18
2023-02-28T00:49:53.606Z,25.64
2023-02-28T00:54:50.926Z,25.24
2023-02-28T00:59:52.273Z,24.73
2023-02-28T01:04:50.676Z,24.35
2023-02-28T01:09:49.775Z,24.00
2023-02-28T01:14:48.962Z,23.68
2023-02-28T01:19:50.132Z,23.39
2023-02-28T01:24:48.312Z,23.15
2023-02-28T01:29:46.527Z,22.88
2023-02-28T01:34:45.713Z,22.62
2023-02-28T01:39:45.874Z,22.35
2023-02-28T01:44:44.033Z,22.09
2023-02-28T01:49:43.179Z,21.88
2023-02-28T01:54:42.368Z,21.71
2023-02-28T01:59:41.545Z,21.50
2023-02-28T02:04:41.721Z,21.35
2023-02-28T02:09:39.910Z,21.14
2023-02-28T02:14:39.084Z,20.95
2023-02-28T02:19:39.299Z,20.79
2023-02-28T02:24:36.474Z,20.66
2023-02-28T02:29:38.668Z,20.50
2023-02-28T02:34:35.842Z,20.35
2023-02-28T02:39:35.041Z,20.23
2023-02-28T02:44:35.270Z,20.08
2023-02-28T02:49:34.486Z,19.99
2023-02-28T02:54:32.688Z,19.88
2023-02-28T02:59:31.891Z,19.76
2023-02-28T03:04:31.085Z,19.65
2023-02-28T03:09:30.248Z,19.56
2023-02-28T03:14:29.417Z,19.46
2023-02-28T03:19:28.608Z,19.37
2023-02-28T03:24:27.768Z,19.31
2023-02-28T03:29:27.961Z,19.21
2023-02-28T03:34:26.193Z,19.13
2023-02-28T03:39:25.364Z,19.02
2023-02-28T03:44:25.546Z,18.95
2023-02-28T03:49:24.755Z,18.90
2023-02-28T03:54:22.930Z,18.82
2023-02-28T03:59:22.225Z,18.75
2023-02-28T04:04:22.560Z,18.67
2023-02-28T04:09:20.691Z,18.62
2023-02-28T04:14:21.009Z,18.57
2023-02-28T04:19:19.329Z,18.54
2023-02-28T04:24:18.505Z,18.52
2023-02-28T04:29:17.638Z,18.50
2023-02-28T04:34:16.981Z,18.51
2023-02-28T04:39:17.157Z,18.51
2023-02-28T04:44:17.345Z,18.51
2023-02-28T04:49:14.456Z,18.51
2023-02-28T04:54:14.581Z,18.47
2023-02-28T04:59:13.773Z,18.44
2023-02-28T05:04:12.924Z,18.42
2023-02-28T05:09:12.260Z,18.36
2023-02-28T05:14:10.372Z,18.33
2023-02-28T05:19:09.755Z,18.27
2023-02-28T05:24:12.036Z,18.21
2023-02-28T05:29:08.161Z,18.15
2023-02-28T05:34:07.497Z,18.12
2023-02-28T05:39:05.798Z,18.08
2023-02-28T05:44:05.991Z,18.03
2023-02-28T05:49:07.240Z,18.02
2023-02-28T05:54:04.458Z,18.07
2023-02-28T05:59:03.620Z,19.07
2023-02-28T06:04:03.726Z,19.58
2023-02-28T06:09:03.028Z,19.76
2023-02-28T06:14:02.375Z,19.83
2023-02-28T06:19:01.683Z,19.76
2023-02-28T06:23:59.980Z,19.39
2023-02-28T06:28:58.324Z,19.21
2023-02-28T06:33:58.446Z,19.16
2023-02-28T06:38:59.773Z,19.00
2023-02-28T06:43:57.113Z,18.87
2023-02-28T06:48:56.232Z,18.75
2023-02-28T06:53:55.383Z,18.62
2023-02-28T06:58:54.535Z,18.48
2023-02-28T07:03:53.897Z,18.36
2023-02-28T07:08:53.036Z,18.25
2023-02-28T07:13:53.388Z,18.17
2023-02-28T07:18:51.532Z,18.32
2023-02-28T07:23:50.657Z,19.46
2023-02-28T07:28:50.960Z,20.29
2023-02-28T07:33:48.292Z,20.58
2023-02-28T07:38:50.606Z,20.47
2023-02-28T07:43:50.980Z,20.39
2023-02-28T07:48:47.074Z,20.41
2023-02-28T07:53:46.386Z,20.42
2023-02-28T07:58:45.669Z,21.61
2023-02-28T08:03:46.021Z,24.64
2023-02-28T08:08:44.331Z,25.98
2023-02-28T08:13:43.674Z,26.84
2023-02-28T08:18:43.815Z,27.32
2023-02-28T08:23:43.976Z,27.22
2023-02-28T08:28:43.070Z,26.94
2023-02-28T08:33:40.395Z,26.13
2023-02-28T08:38:41.716Z,25.79
2023-02-28T08:43:39.029Z,25.32
2023-02-28T08:48:38.334Z,24.73
2023-02-28T08:53:37.637Z,24.21
2023-02-28T08:58:36.967Z,23.70
2023-02-28T09:03:36.324Z,23.23
2023-02-28T09:08:35.501Z,22.83
2023-02-28T09:13:35.822Z,22.31
2023-02-28T09:18:34.127Z,21.86
2023-02-28T09:23:38.552Z,21.53
2023-02-28T09:28:33.641Z,21.19
2023-02-28T09:33:32.939Z,20.89
2023-02-28T09:38:31.210Z,20.69
2023-02-28T09:43:30.480Z,20.36
2023-02-28T09:48:31.772Z,20.17
2023-02-28T09:53:29.009Z,19.98
2023-02-28T09:58:29.308Z,19.84
2023-02-28T10:03:30.701Z,19.66
2023-02-28T10:08:26.778Z,19.48
2023-02-28T10:13:26.074Z,19.40
2023-02-28T10:18:25.394Z,19.32
2023-02-28T10:23:25.701Z,19.47
2023-02-28T10:28:24.055Z,20.17
2023-02-28T10:33:23.250Z,21.43
2023-02-28T10:38:23.418Z,22.45
2023-02-28T10:43:22.756Z,22.92
2023-02-28T10:48:20.908Z,22.90
2023-02-28T10:53:20.039Z,22.54
2023-02-28T10:58:19.357Z,22.40
2023-02-28T11:03:18.692Z,22.14
2023-02-28T11:08:19.814Z,21.74
2023-02-28T11:13:19.110Z,21.37
2023-02-28T11:18:18.082Z,20.98
2023-02-28T11:23:15.821Z,20.73
2023-02-28T11:28:14.984Z,20.58
2023-02-28T11:33:14.120Z,20.35
2023-02-28T11:38:13.261Z,20.20
2023-02-28T11:43:12.695Z,20.03
2023-02-28T11:48:11.834Z,19.86
2023-02-28T11:53:11.187Z,19.66
2023-02-28T11:58:10.354Z,19.51
2023-02-28T12:03:11.449Z,19.84
2023-02-28T12:08:10.762Z,20.91
2023-02-28T12:13:08.042Z,22.54
2023-02-28T12:18:08.363Z,23.32
2023-02-28T12:23:06.657Z,22.83
2023-02-28T12:28:05.983Z,22.37
2023-02-28T12:33:05.115Z,22.07
2023-02-28T12:38:05.268Z,21.80
2023-02-28T12:43:05.403Z,21.44
2023-02-28T12:48:04.754Z,21.32
2023-02-28T12:53:03.056Z,21.09
2023-02-28T12:58:01.258Z,20.84
2023-02-28T13:03:01.824Z,20.55
2023-02-28T13:07:59.682Z,20.33
2023-02-28T13:12:59.915Z,20.11
2023-02-28T13:17:59.105Z,19.96
2023-02-28T13:22:57.315Z,19.86
2023-02-28T13:27:55.625Z,19.65
2023-02-28T13:32:57.831Z,19.59
2023-02-28T13:37:56.019Z,19.68
2023-02-28T13:42:55.220Z,19.78
2023-02-28T13:47:54.416Z,20.20
2023-02-28T13:52:53.632Z,20.42
2023-02-28T13:57:51.806Z,20.79
2023-02-28T14:02:52.486Z,20.59
2023-02-28T14:07:52.267Z,20.52
2023-02-28T14:12:51.029Z,20.50
2023-02-28T14:17:47.848Z,20.39
2023-02-28T14:22:48.984Z,20.24
2023-02-28T14:27:48.156Z,20.16
2023-02-28T14:32:47.346Z,20.03
2023-02-28T14:37:48.797Z,19.91
2023-02-28T14:42:44.764Z,19.68
2023-02-28T14:47:45.022Z,19.95
2023-02-28T14:52:43.293Z,20.21
2023-02-28T14:57:42.620Z,21.35
2023-02-28T15:02:41.937Z,21.69
2023-02-28T15:07:40.262Z,21.82
2023-02-28T15:12:40.567Z,21.61
2023-02-28T15:17:39.905Z,21.24
2023-02-28T15:22:40.204Z,21.06
2023-02-28T15:27:39.523Z,20.80
2023-02-28T15:32:37.892Z,20.66
2023-02-28T15:37:38.112Z,20.54
2023-02-28T15:42:36.210Z,20.29
2023-02-28T15:47:35.576Z,20.05
2023-02-28T15:52:34.683Z,19.94
2023-02-28T15:57:35.009Z,19.71
2023-02-28T16:02:33.353Z,19.51
2023-02-28T16:07:32.333Z,19.33
2023-02-28T16:12:32.502Z,19.80
2023-02-28T16:17:30.680Z,20.51
2023-02-28T16:22:30.841Z,21.86
2023-02-28T16:27:28.941Z,22.95
2023-02-28T16:32:28.321Z,22.80
2023-02-28T16:37:31.591Z,22.28
2023-02-28T16:42:27.759Z,21.83
2023-02-28T16:47:26.060Z,21.40
2023-02-28T16:52:25.647Z,21.14
2023-02-28T16:57:24.613Z,20.87
2023-02-28T17:02:24.380Z,20.70
2023-02-28T17:07:23.083Z,20.47
2023-02-28T17:12:23.703Z,20.24
2023-02-28T17:17:22.642Z,19.95
2023-02-28T17:22:20.949Z,19.77
2023-02-28T17:27:20.337Z,19.54
2023-02-28T17:32:20.846Z,19.31
2023-02-28T17:37:18.991Z,19.41
2023-02-28T17:42:18.031Z,19.91
2023-02-28T17:47:18.057Z,20.55
2023-02-28T17:52:17.353Z,20.66
2023-02-28T17:57:14.528Z,20.80
2023-02-28T18:02:17.058Z,20.61
2023-02-28T18:07:13.887Z,20.54
2023-02-28T18:12:14.081Z,20.32
2023-02-28T18:17:15.298Z,20.31
2023-02-28T18:22:12.781Z,22.06
2023-02-28T18:27:10.973Z,24.52
2023-02-28T18:32:10.290Z,25.33
2023-02-28T18:37:10.155Z,26.39
2023-02-28T18:42:09.590Z,26.66
2023-02-28T18:47:07.582Z,26.36
2023-02-28T18:52:06.926Z,27.24
2023-02-28T18:57:07.432Z,27.41
2023-02-28T19:02:05.742Z,27.79
2023-02-28T19:07:06.557Z,28.07
2023-02-28T19:12:04.053Z,28.37
2023-02-28T19:17:03.036Z,28.39
2023-02-28T19:22:02.687Z,28.43
2023-02-28T19:27:02.802Z,28.19
2023-02-28T19:32:02.365Z,28.30
2023-02-28T19:37:01.530Z,28.19
2023-02-28T19:41:59.716Z,28.59
2023-02-28T19:46:58.900Z,28.41
2023-02-28T19:51:58.113Z,28.40
2023-02-28T19:56:57.327Z,28.62
2023-02-28T20:01:57.115Z,28.71
2023-02-28T20:06:56.834Z,28.67
2023-02-28T20:11:55.957Z,28.76
2023-02-28T20:16:55.475Z,29.04
2023-02-28T20:21:53.403Z,29.16
2023-02-28T20:26:52.400Z,29.18
2023-02-28T20:31:53.125Z,28.96
2023-02-28T20:36:50.305Z,28.93
2023-02-28T20:41:51.426Z,29.19
2023-02-28T20:46:49.397Z,28.95
2023-02-28T20:51:51.604Z,28.98
2023-02-28T20:56:53.147Z,29.15
2023-02-28T21:01:47.453Z,29.51
2023-02-28T21:06:48.611Z,29.16
2023-02-28T21:11:46.222Z,29.16
2023-02-28T21:16:45.214Z,29.15
2023-02-28T21:21:45.852Z,29.06
2023-02-28T21:26:44.095Z,29.80
2023-02-28T21:31:43.366Z,29.86
2023-02-28T21:36:43.277Z,29.48
2023-02-28T21:41:41.697Z,28.88
2023-02-28T21:46:40.938Z,28.85
2023-02-28T21:51:40.082Z,28.74
2023-02-28T21:56:39.449Z,29.28
2023-02-28T22:01:39.655Z,29.57
2023-02-28T22:06:38.842Z,29.42
2023-02-28T22:11:36.968Z,29.43
2023-02-28T22:16:50.370Z,29.55
2023-02-28T22:21:35.518Z,29.63
2023-02-28T22:26:33.844Z,29.05
2023-02-28T22:31:34.014Z,29.33
2023-02-28T22:36:34.172Z,29.55
2023-02-28T22:41:32.515Z,29.71
2023-02-28T22:46:32.067Z,29.76
2023-02-28T22:51:31.989Z,29.92
2023-02-28T22:56:30.560Z,29.85
2023-02-28T23:01:30.557Z,29.90
2023-02-28T23:06:29.069Z,30.13
2023-02-28T23:11:27.880Z,30.11
2023-02-28T23:16:27.215Z,30.19
2023-02-28T23:21:27.499Z,30.08
2023-02-28T23:26:26.745Z,29.90
2023-02-28T23:31:25.063Z,29.87
2023-02-28T23:36:26.348Z,29.83
2023-02-28T23:41:23.653Z,29.85
2023-02-28T23:46:22.961Z,29.86
2023-02-28T23:51:23.253Z,30.05
2023-02-28T23:56:22.534Z,29.95
